APL Singapore — WCX8812 — position and weather

sailwx.info

Track history (hours):
 
Tides and Currents Weather Stations Pressure Air Temp Water Temp Dewpoint Dewpoint Depression Visibility Wind Speed Wind Dir Waves Ship Positions

APL Singapore

Owner: APL Maritime, Ltd, Rockville, MD. More information available from US FCC via Universal Licensing System and Coast Guard Vessel Documentation Center.

Last reported at 2017-Nov-24 13:23 UTC. Time now 2017-Nov-24 18:28 UTC.
Position N 31°06' E 122°32'.

Type: Ship (hazmat cat A). MMSI: 368680000.

Date/timePositionNaut miles runAvg speedWind from/ knotsBaromVisibWave heightAir tempDewpointWater temp
2017-Nov-24 13:23N 31°06' E 122°32'4 9.5
2017-Nov-24 12:57N 31°06' E 122°27'3 7.8
2017-Nov-24 12:30N 31°06' E 122°23'5 9.4
2017-Nov-24 12:00N 31°06' E 122°18'612.2
2017-Nov-24 11:30N 31°10' E 122°12'612.2
2017-Nov-24 11:00N 31°14' E 122°06'5 9.3
2017-Nov-24 10:30N 31°15' E 122°01'511.0
2017-Nov-24 10:01N 31°16' E 121°54'5 9.7
2017-Nov-24 09:30N 31°17' E 121°49'612.6
2017-Nov-24 09:01N 31°19' E 121°42'510.4
2017-Nov-24 08:30N 31°22' E 121°37'2 3.1
2017-Nov-24 08:00N 31°22' E 121°35'0 0.0
2017-Nov-24 07:30N 31°22' E 121°35'0 0.0
2017-Nov-24 07:00N 31°22' E 121°35'0 0.1
2017-Nov-24 06:30N 31°22' E 121°35'0 0.1
2017-Nov-24 06:00N 31°22' E 121°35'0 0.0
2017-Nov-24 05:30N 31°22' E 121°35'0 0.0
2017-Nov-24 05:00N 31°22' E 121°35'0 0.0
2017-Nov-24 04:30N 31°22' E 121°35'0 0.1
2017-Nov-24 03:57N 31°22' E 121°35'0 0.1
2017-Nov-24 03:30N 31°22' E 121°35'0 0.0
2017-Nov-24 03:00N 31°22' E 121°35'0 0.1
2017-Nov-24 02:27N 31°22' E 121°35'0 0.0
2017-Nov-24 02:00N 31°22' E 121°35'0 0.1
2017-Nov-24 01:30N 31°22' E 121°35'0 0.1
2017-Nov-24 01:00N 31°22' E 121°35'0 0.1
2017-Nov-24 00:30N 31°22' E 121°35'0 0.0
2017-Nov-24 00:00N 31°22' E 121°35'0 0.0
2017-Nov-23 23:30N 31°22' E 121°35'0 0.0
2017-Nov-23 23:00N 31°22' E 121°35'0 0.0
2017-Nov-23 22:24N 31°22' E 121°35'0 0.0
2017-Nov-23 21:51N 31°22' E 121°35'0 0.0
2017-Nov-23 21:30N 31°22' E 121°35'0 0.0
2017-Nov-23 21:00N 31°22' E 121°35'0 0.0
2017-Nov-23 20:30N 31°22' E 121°35'0 0.0
2017-Nov-23 19:57N 31°22' E 121°35'0 0.0
2017-Nov-23 19:30N 31°22' E 121°35'0 0.0
2017-Nov-23 19:00N 31°22' E 121°35'0 0.1
2017-Nov-23 18:30N 31°22' E 121°35'0 0.0
2017-Nov-23 18:00N 31°22' E 121°35'0 0.1
2017-Nov-23 17:30N 31°22' E 121°35'0 0.0
2017-Nov-23 17:00N 31°22' E 121°35'0 0.1
2017-Nov-23 16:30N 31°22' E 121°35'0 0.1
2017-Nov-23 15:54N 31°22' E 121°35'0 0.1
2017-Nov-23 15:27N 31°22' E 121°35'0 0.1
2017-Nov-23 15:00N 31°22' E 121°35'0 0.0
2017-Nov-23 14:21N 31°22' E 121°35'0 0.0
2017-Nov-23 13:51N 31°22' E 121°35'0 0.1
2017-Nov-23 13:30N 31°22' E 121°35'0 0.1
2017-Nov-23 12:48N 31°22' E 121°35'0 0.0
2017-Nov-23 12:30N 31°22' E 121°35'0 0.0
2017-Nov-23 11:57N 31°22' E 121°35'0 0.0
2017-Nov-23 11:27N 31°22' E 121°35'0 0.0
2017-Nov-23 11:00N 31°22' E 121°35'0 0.0
2017-Nov-23 10:24N 31°22' E 121°35'0 0.0
2017-Nov-23 09:57N 31°22' E 121°35'0 0.0
2017-Nov-23 09:30N 31°22' E 121°35'0 0.0
2017-Nov-23 09:00N 31°22' E 121°35'0 0.0
2017-Nov-23 08:30N 31°22' E 121°35'0 0.0
2017-Nov-23 07:51N 31°22' E 121°35'0 0.1
2017-Nov-23 07:27N 31°22' E 121°35'0 0.1
2017-Nov-23 07:00N 31°22' E 121°35'0 0.0
2017-Nov-23 06:30N 31°22' E 121°35'0 0.9
2017-Nov-23 06:00N 31°22' E 121°36'3 6.3
2017-Nov-23 05:30N 31°21' E 121°39'510.7
2017-Nov-23 05:00N 31°19' E 121°45'610.6
2017-Nov-23 04:27N 31°16' E 121°51'510.8
2017-Nov-23 04:00N 31°15' E 121°56'510.1
2017-Nov-23 03:31N 31°14' E 122°02'611.6
2017-Nov-23 03:01N 31°12' E 122°08'4 8.7
2017-Nov-23 02:31N 31°10' E 122°12'4 8.5
2017-Nov-23 02:00N 31°07' E 122°17'5 9.4
2017-Nov-23 01:30N 31°06' E 122°22'714.0
2017-Nov-23 01:01N 31°08' E 122°30'4 8.8
2017-Nov-23 00:31N 31°10' E 122°35'4 8.1
2017-Nov-23 00:00N 31°07' E 122°38'5 9.5
2017-Nov-22 23:29N 31°12' E 122°38'4 8.8
2017-Nov-22 23:00N 31°16' E 122°39'0 0.2
2017-Nov-22 22:11N 31°16' E 122°39'0 0.0
2017-Nov-22 21:59N 31°16' E 122°39'0 0.0
2017-Nov-22 21:17N 31°16' E 122°39'0 0.0
2017-Nov-22 20:43N 31°16' E 122°39'0 0.0
2017-Nov-22 20:22N 31°16' E 122°39'0 0.0
2017-Nov-22 19:55N 31°16' E 122°39'  
Track history (hours):
 
Tides and Currents Weather Stations Pressure Air Temp Water Temp Dewpoint Dewpoint Depression Visibility Wind Speed Wind Dir Waves Ship Positions

APL Singapore

Owner: APL Maritime, Ltd, Rockville, MD. More information available from US FCC via Universal Licensing System and Coast Guard Vessel Documentation Center.

Last reported at 2017-Nov-24 13:23 UTC. Time now 2017-Nov-24 18:28 UTC.
Position N 31°06' E 122°32'.

Type: Ship (hazmat cat A). MMSI: 368680000.

Date/timePositionNaut miles runAvg speedWind from/ knotsBaromVisibWave heightAir tempDewpointWater temp
2017-Nov-24 13:23N 31°06' E 122°32'4 9.5
2017-Nov-24 12:57N 31°06' E 122°27'3 7.8
2017-Nov-24 12:30N 31°06' E 122°23'5 9.4
2017-Nov-24 12:00N 31°06' E 122°18'612.2
2017-Nov-24 11:30N 31°10' E 122°12'612.2
2017-Nov-24 11:00N 31°14' E 122°06'5 9.3
2017-Nov-24 10:30N 31°15' E 122°01'511.0
2017-Nov-24 10:01N 31°16' E 121°54'5 9.7
2017-Nov-24 09:30N 31°17' E 121°49'612.6
2017-Nov-24 09:01N 31°19' E 121°42'510.4
2017-Nov-24 08:30N 31°22' E 121°37'2 3.1
2017-Nov-24 08:00N 31°22' E 121°35'0 0.0
2017-Nov-24 07:30N 31°22' E 121°35'0 0.0
2017-Nov-24 07:00N 31°22' E 121°35'0 0.1
2017-Nov-24 06:30N 31°22' E 121°35'0 0.1
2017-Nov-24 06:00N 31°22' E 121°35'0 0.0
2017-Nov-24 05:30N 31°22' E 121°35'0 0.0
2017-Nov-24 05:00N 31°22' E 121°35'0 0.0
2017-Nov-24 04:30N 31°22' E 121°35'0 0.1
2017-Nov-24 03:57N 31°22' E 121°35'0 0.1
2017-Nov-24 03:30N 31°22' E 121°35'0 0.0
2017-Nov-24 03:00N 31°22' E 121°35'0 0.1
2017-Nov-24 02:27N 31°22' E 121°35'0 0.0
2017-Nov-24 02:00N 31°22' E 121°35'0 0.1
2017-Nov-24 01:30N 31°22' E 121°35'0 0.1
2017-Nov-24 01:00N 31°22' E 121°35'0 0.1
2017-Nov-24 00:30N 31°22' E 121°35'0 0.0
2017-Nov-24 00:00N 31°22' E 121°35'0 0.0
2017-Nov-23 23:30N 31°22' E 121°35'0 0.0
2017-Nov-23 23:00N 31°22' E 121°35'0 0.0
2017-Nov-23 22:24N 31°22' E 121°35'0 0.0
2017-Nov-23 21:51N 31°22' E 121°35'0 0.0
2017-Nov-23 21:30N 31°22' E 121°35'0 0.0
2017-Nov-23 21:00N 31°22' E 121°35'0 0.0
2017-Nov-23 20:30N 31°22' E 121°35'0 0.0
2017-Nov-23 19:57N 31°22' E 121°35'0 0.0
2017-Nov-23 19:30N 31°22' E 121°35'0 0.0
2017-Nov-23 19:00N 31°22' E 121°35'0 0.1
2017-Nov-23 18:30N 31°22' E 121°35'0 0.0
2017-Nov-23 18:00N 31°22' E 121°35'0 0.1
2017-Nov-23 17:30N 31°22' E 121°35'0 0.0
2017-Nov-23 17:00N 31°22' E 121°35'0 0.1
2017-Nov-23 16:30N 31°22' E 121°35'0 0.1
2017-Nov-23 15:54N 31°22' E 121°35'0 0.1
2017-Nov-23 15:27N 31°22' E 121°35'0 0.1
2017-Nov-23 15:00N 31°22' E 121°35'0 0.0
2017-Nov-23 14:21N 31°22' E 121°35'0 0.0
2017-Nov-23 13:51N 31°22' E 121°35'0 0.1
2017-Nov-23 13:30N 31°22' E 121°35'0 0.1
2017-Nov-23 12:48N 31°22' E 121°35'0 0.0
2017-Nov-23 12:30N 31°22' E 121°35'0 0.0
2017-Nov-23 11:57N 31°22' E 121°35'0 0.0
2017-Nov-23 11:27N 31°22' E 121°35'0 0.0
2017-Nov-23 11:00N 31°22' E 121°35'0 0.0
2017-Nov-23 10:24N 31°22' E 121°35'0 0.0
2017-Nov-23 09:57N 31°22' E 121°35'0 0.0
2017-Nov-23 09:30N 31°22' E 121°35'0 0.0
2017-Nov-23 09:00N 31°22' E 121°35'0 0.0
2017-Nov-23 08:30N 31°22' E 121°35'0 0.0
2017-Nov-23 07:51N 31°22' E 121°35'0 0.1
2017-Nov-23 07:27N 31°22' E 121°35'0 0.1
2017-Nov-23 07:00N 31°22' E 121°35'0 0.0
2017-Nov-23 06:30N 31°22' E 121°35'0 0.9
2017-Nov-23 06:00N 31°22' E 121°36'3 6.3
2017-Nov-23 05:30N 31°21' E 121°39'510.7
2017-Nov-23 05:00N 31°19' E 121°45'610.6
2017-Nov-23 04:27N 31°16' E 121°51'510.8
2017-Nov-23 04:00N 31°15' E 121°56'510.1
2017-Nov-23 03:31N 31°14' E 122°02'611.6
2017-Nov-23 03:01N 31°12' E 122°08'4 8.7
2017-Nov-23 02:31N 31°10' E 122°12'4 8.5
2017-Nov-23 02:00N 31°07' E 122°17'5 9.4
2017-Nov-23 01:30N 31°06' E 122°22'714.0
2017-Nov-23 01:01N 31°08' E 122°30'4 8.8
2017-Nov-23 00:31N 31°10' E 122°35'4 8.1
2017-Nov-23 00:00N 31°07' E 122°38'5 9.5
2017-Nov-22 23:29N 31°12' E 122°38'4 8.8
2017-Nov-22 23:00N 31°16' E 122°39'0 0.2
2017-Nov-22 22:11N 31°16' E 122°39'0 0.0
2017-Nov-22 21:59N 31°16' E 122°39'0 0.0
2017-Nov-22 21:17N 31°16' E 122°39'0 0.0
2017-Nov-22 20:43N 31°16' E 122°39'0 0.0
2017-Nov-22 20:22N 31°16' E 122°39'0 0.0
2017-Nov-22 19:55N 31°16' E 122°39'  

Dump ship's entire track history